Time;durP1;ratioP1;P1;durP2;ratioP2;P2;SDS_P1;SDS_P2;PMS_P1;PMS_P2;Temp;Humidity;BMP_temperature;BMP_pressure;BME280_temperature;BME280_humidity;BME280_pressure;Samples;Min_cycle;Max_cycle;Signal;HPM_P1;HPM_P2
2022/07/03 00:01:21;;;;;;;7.15;4.72;;;15.20;99.90;;;;;;5032810;28;20034;-73
2022/07/03 00:03:47;;;;;;;5.97;4.30;;;15.20;99.90;;;;;;5031646;28;20033;-72
2022/07/03 00:06:12;;;;;;;7.30;4.20;;;15.20;99.90;;;;;;5028042;28;20030;-75
2022/07/03 00:08:38;;;;;;;5.88;4.18;;;15.20;99.90;;;;;;5031743;28;20025;-75
2022/07/03 00:11:05;;;;;;;6.68;4.00;;;15.20;99.90;;;;;;5032875;28;20104;-75
2022/07/03 00:13:31;;;;;;;5.00;3.88;;;15.20;99.90;;;;;;5032626;28;20027;-75
2022/07/03 00:15:57;;;;;;;7.28;3.85;;;15.20;99.90;;;;;;5032703;28;20017;-75
2022/07/03 00:18:22;;;;;;;6.25;3.83;;;15.20;99.90;;;;;;5031563;28;20057;-75
2022/07/03 00:20:51;;;;;;;6.70;3.80;;;15.20;99.90;;;;;;5031182;28;20017;-75
2022/07/03 00:23:18;;;;;;;5.43;4.00;;;15.20;99.90;;;;;;5029407;28;20029;-74
2022/07/03 00:25:44;;;;;;;4.30;3.35;;;15.10;99.90;;;;;;5027623;28;20013;-75
2022/07/03 00:28:10;;;;;;;7.00;3.95;;;15.10;99.90;;;;;;5032398;28;20021;-75
2022/07/03 00:30:36;;;;;;;4.80;3.05;;;15.10;99.90;;;;;;5032330;28;20051;-75
2022/07/03 00:33:03;;;;;;;4.88;3.60;;;15.00;99.90;;;;;;5032157;28;20034;-75
2022/07/03 00:35:32;;;;;;;6.70;3.92;;;15.10;99.90;;;;;;5030950;28;20116;-75
2022/07/03 00:37:58;;;;;;;5.28;3.10;;;15.00;99.90;;;;;;5032337;28;20033;-75
2022/07/03 00:40:24;;;;;;;7.32;3.75;;;15.00;99.90;;;;;;5032295;28;20025;-74
2022/07/03 00:42:53;;;;;;;5.95;3.40;;;15.00;99.90;;;;;;5031221;28;20079;-75
2022/07/03 00:45:20;;;;;;;5.32;3.38;;;15.00;99.90;;;;;;5030539;28;20390;-74
2022/07/03 00:47:47;;;;;;;5.32;3.22;;;14.90;99.90;;;;;;5032539;28;20025;-74
2022/07/03 00:50:13;;;;;;;6.47;3.47;;;14.90;99.90;;;;;;5033587;28;20030;-75
2022/07/03 00:52:45;;;;;;;5.20;3.70;;;14.90;99.90;;;;;;5032655;28;20374;-74
2022/07/03 00:55:15;;;;;;;4.38;3.08;;;14.90;99.90;;;;;;5028930;28;20033;-75
2022/07/03 00:57:46;;;;;;;3.70;3.00;;;14.80;99.90;;;;;;5038751;28;20021;-74
2022/07/03 01:00:16;;;;;;;6.35;3.67;;;14.80;99.90;;;;;;5041240;28;20025;-74
2022/07/03 01:02:44;;;;;;;5.05;3.13;;;14.70;99.90;;;;;;5040584;28;20079;-74
2022/07/03 01:05:31;;;;;;;4.53;3.40;;;14.70;99.90;;;;;;5040149;28;20036;-73
2022/07/03 01:08:06;;;;;;;4.72;3.30;;;14.70;99.90;;;;;;5024249;28;20044;-74
2022/07/03 01:10:43;;;;;;;4.22;3.53;;;14.70;99.90;;;;;;5034107;28;20036;-74
2022/07/03 01:13:15;;;;;;;6.97;3.30;;;14.60;99.90;;;;;;5029248;28;20109;-74
2022/07/03 01:15:46;;;;;;;4.85;3.05;;;14.60;99.90;;;;;;5021778;28;20467;-74
2022/07/03 01:18:37;;;;;;;4.35;3.17;;;14.60;99.90;;;;;;5019884;28;20364;-74
2022/07/03 01:21:16;;;;;;;5.20;3.20;;;14.50;99.90;;;;;;5019516;28;20108;-75
2022/07/03 01:23:41;;;;;;;5.90;3.53;;;14.50;99.90;;;;;;5026607;28;20033;-74
2022/07/03 01:26:09;;;;;;;3.65;2.92;;;14.40;99.90;;;;;;5030973;28;20038;-75
2022/07/03 01:28:38;;;;;;;7.65;3.42;;;14.40;99.90;;;;;;5031746;28;20473;-75
2022/07/03 01:31:06;;;;;;;4.85;2.65;;;14.40;99.90;;;;;;5031308;28;20451;-75
2022/07/03 01:33:35;;;;;;;5.25;3.42;;;14.40;99.90;;;;;;5023064;28;20025;-75
2022/07/03 01:36:00;;;;;;;4.93;3.35;;;14.40;99.90;;;;;;5031548;28;20463;-75
2022/07/03 01:38:31;;;;;;;5.88;3.60;;;14.40;99.90;;;;;;5030851;28;20041;-75
2022/07/03 01:40:58;;;;;;;5.20;3.50;;;14.30;99.90;;;;;;5031666;28;20125;-75
2022/07/03 01:43:29;;;;;;;4.50;3.30;;;14.30;99.90;;;;;;5031142;28;20033;-75
2022/07/03 01:45:58;;;;;;;5.63;3.05;;;14.30;99.90;;;;;;5030739;28;20037;-75
2022/07/03 01:48:25;;;;;;;6.60;3.22;;;14.30;99.90;;;;;;5031609;28;20032;-75
2022/07/03 01:50:51;;;;;;;4.72;3.47;;;14.20;99.90;;;;;;5031370;28;20463;-75
2022/07/03 01:53:18;;;;;;;5.75;3.28;;;14.20;99.90;;;;;;5028718;28;20052;-75
2022/07/03 01:55:45;;;;;;;4.43;3.35;;;14.20;99.90;;;;;;5031101;28;20033;-75
2022/07/03 01:58:11;;;;;;;8.95;3.28;;;14.10;99.90;;;;;;5031098;28;20018;-75
2022/07/03 02:00:59;;;;;;;4.82;2.88;;;14.10;99.90;;;;;;5030749;28;20045;-75
2022/07/03 02:03:28;;;;;;;4.65;3.50;;;14.10;99.90;;;;;;5030225;28;20030;-75
2022/07/03 02:06:20;;;;;;;6.03;3.50;;;14.10;99.90;;;;;;5031244;28;20029;-75
2022/07/03 02:08:53;;;;;;;4.20;3.30;;;14.10;99.90;;;;;;5018193;28;20133;-74
2022/07/03 02:11:22;;;;;;;4.28;3.42;;;14.10;99.90;;;;;;5029685;28;20112;-75
2022/07/03 02:13:51;;;;;;;4.47;3.33;;;14.00;99.90;;;;;;5030571;28;20032;-74
2022/07/03 02:16:20;;;;;;;4.85;3.40;;;14.00;99.90;;;;;;5029858;28;20083;-75
2022/07/03 02:18:56;;;;;;;6.00;2.92;;;14.00;99.90;;;;;;5030413;28;20079;-74
2022/07/03 02:21:24;;;;;;;3.88;3.10;;;14.00;99.90;;;;;;5029099;28;20052;-75
2022/07/03 02:24:14;;;;;;;5.07;3.38;;;13.90;99.90;;;;;;5028271;28;20033;-75
2022/07/03 02:26:42;;;;;;;5.13;3.25;;;13.90;99.90;;;;;;5029341;28;20116;-75
2022/07/03 02:29:12;;;;;;;6.18;3.22;;;13.90;99.90;;;;;;5030459;28;20580;-74
2022/07/03 02:31:42;;;;;;;4.43;3.03;;;13.90;99.90;;;;;;5029445;28;20057;-75
2022/07/03 02:34:13;;;;;;;3.50;2.85;;;13.90;99.90;;;;;;5030227;28;20430;-75
2022/07/03 02:36:42;;;;;;;6.18;3.20;;;13.90;99.90;;;;;;5030417;28;20032;-75
2022/07/03 02:39:14;;;;;;;4.70;3.30;;;13.90;99.90;;;;;;5029932;28;20075;-75
2022/07/03 02:41:46;;;;;;;5.05;3.10;;;13.90;99.90;;;;;;5029270;28;20056;-74
2022/07/03 02:44:23;;;;;;;5.72;3.15;;;13.90;99.90;;;;;;5030310;28;20113;-74
2022/07/03 02:47:11;;;;;;;4.47;3.00;;;13.90;99.90;;;;;;5030283;28;20022;-75
2022/07/03 02:50:02;;;;;;;4.18;3.00;;;13.90;99.90;;;;;;5029885;28;20026;-75
2022/07/03 02:52:41;;;;;;;5.10;2.97;;;13.90;99.90;;;;;;5029012;28;20040;-74
2022/07/03 02:55:44;;;;;;;6.22;2.95;;;13.90;99.90;;;;;;5017221;28;20394;-75
2022/07/03 02:58:29;;;;;;;3.92;2.90;;;13.90;99.90;;;;;;5029984;28;20021;-75
2022/07/03 03:01:07;;;;;;;4.75;2.85;;;13.90;99.90;;;;;;5030147;28;20021;-75
2022/07/03 03:03:33;;;;;;;4.80;2.78;;;13.90;99.90;;;;;;5028254;28;20021;-75
2022/07/03 03:06:12;;;;;;;9.05;3.08;;;13.90;99.90;;;;;;5028984;28;20038;-75
2022/07/03 03:08:53;;;;;;;4.65;2.83;;;13.90;99.90;;;;;;5030466;28;20676;-74
2022/07/03 03:11:24;;;;;;;4.70;3.10;;;13.80;99.90;;;;;;5029757;28;20029;-74
2022/07/03 03:13:54;;;;;;;5.03;2.80;;;13.80;99.90;;;;;;5029892;28;20030;-74
2022/07/03 03:16:20;;;;;;;5.55;3.10;;;13.80;99.90;;;;;;5029275;28;20125;-74
2022/07/03 03:18:48;;;;;;;5.40;3.10;;;13.80;99.90;;;;;;5028378;28;20109;-75
2022/07/03 03:21:17;;;;;;;7.18;3.05;;;13.80;99.90;;;;;;5029211;28;20209;-75
2022/07/03 03:23:49;;;;;;;6.55;3.17;;;13.70;99.90;;;;;;5022076;28;20570;-75
2022/07/03 03:26:21;;;;;;;9.02;3.25;;;13.70;99.90;;;;;;5029852;28;20022;-74
2022/07/03 03:28:48;;;;;;;6.38;2.90;;;13.70;99.90;;;;;;5029688;28;20075;-74
2022/07/03 03:31:14;;;;;;;4.40;2.60;;;13.70;99.90;;;;;;5029964;28;20079;-74
2022/07/03 03:33:45;;;;;;;6.38;2.67;;;13.70;99.90;;;;;;5028994;28;20429;-74
2022/07/03 03:36:13;;;;;;;4.57;2.63;;;13.60;99.90;;;;;;5028968;28;20021;-74
2022/07/03 03:38:40;;;;;;;5.53;2.80;;;13.60;99.90;;;;;;5029686;28;20022;-74
2022/07/03 03:41:06;;;;;;;5.70;2.78;;;13.70;99.90;;;;;;5029664;28;20024;-74
2022/07/03 03:43:33;;;;;;;3.40;2.63;;;13.70;99.90;;;;;;5028603;28;20038;-74
2022/07/03 03:45:59;;;;;;;5.18;2.85;;;13.70;99.90;;;;;;5029637;28;20029;-74
2022/07/03 03:48:29;;;;;;;4.88;2.47;;;13.70;99.90;;;;;;5029578;28;20108;-74
2022/07/03 03:50:56;;;;;;;5.60;2.80;;;13.70;99.90;;;;;;5029455;28;20025;-74
2022/07/03 03:53:23;;;;;;;6.22;2.75;;;13.70;99.90;;;;;;5028451;28;20042;-74
2022/07/03 04:02:32;;;;;;;3.83;2.67;;;13.70;99.90;;;;;;5030356;28;20100;-71
2022/07/03 04:05:01;;;;;;;3.88;2.70;;;13.70;99.90;;;;;;5034110;28;20113;-72
2022/07/03 04:07:41;;;;;;;4.10;2.60;;;13.80;99.90;;;;;;5034417;28;20052;-72
2022/07/03 04:10:11;;;;;;;4.03;2.67;;;13.80;99.90;;;;;;5032491;28;20029;-71
2022/07/03 04:12:36;;;;;;;6.32;2.50;;;13.90;99.90;;;;;;5034153;28;20026;-71
2022/07/03 04:15:02;;;;;;;3.60;2.60;;;13.90;99.90;;;;;;5033716;28;20026;-71
2022/07/03 04:17:33;;;;;;;6.82;3.03;;;13.90;99.90;;;;;;5032243;28;20072;-72
2022/07/03 04:19:58;;;;;;;4.50;2.58;;;14.00;99.90;;;;;;5033050;28;20656;-72
2022/07/03 04:22:29;;;;;;;4.90;2.80;;;14.10;99.90;;;;;;5023864;28;20117;-72
2022/07/03 04:24:54;;;;;;;4.82;2.70;;;14.10;99.90;;;;;;5032722;28;20064;-72
2022/07/03 04:27:20;;;;;;;3.42;2.83;;;14.20;99.90;;;;;;5031871;28;20060;-72
2022/07/03 04:29:48;;;;;;;3.65;2.40;;;14.30;99.90;;;;;;5035591;28;20403;-72
2022/07/03 04:32:14;;;;;;;4.10;2.40;;;14.40;99.90;;;;;;5033489;28;20032;-70
2022/07/03 04:34:39;;;;;;;3.72;2.58;;;14.50;99.90;;;;;;5033937;28;20025;-72
2022/07/03 04:37:08;;;;;;;3.58;2.50;;;14.60;99.90;;;;;;5032430;28;20048;-71
2022/07/03 04:39:34;;;;;;;3.47;2.65;;;14.70;99.90;;;;;;5033450;28;20750;-71
2022/07/03 04:41:59;;;;;;;4.18;2.90;;;14.80;99.90;;;;;;5033859;28;20083;-71
2022/07/03 04:44:30;;;;;;;4.00;2.40;;;14.90;99.90;;;;;;5033310;28;20025;-71
2022/07/03 04:46:55;;;;;;;4.45;2.50;;;14.90;99.90;;;;;;5033289;28;20102;-71
2022/07/03 04:49:21;;;;;;;4.82;2.67;;;15.10;99.90;;;;;;5033313;28;20534;-71
2022/07/03 04:51:56;;;;;;;3.55;2.63;;;15.20;99.90;;;;;;5033286;28;20029;-71
2022/07/03 04:54:23;;;;;;;3.95;2.38;;;15.20;99.90;;;;;;5033255;28;20175;-71
2022/07/03 04:56:49;;;;;;;5.60;2.85;;;15.40;99.90;;;;;;5034014;28;20032;-72
2022/07/03 04:59:14;;;;;;;6.28;2.42;;;15.50;99.90;;;;;;5032404;28;20022;-71
2022/07/03 05:01:40;;;;;;;3.50;2.55;;;15.70;99.90;;;;;;5033529;28;20021;-71
2022/07/03 05:04:06;;;;;;;3.53;2.28;;;15.80;99.90;;;;;;5032964;28;20357;-72
2022/07/03 05:06:31;;;;;;;4.85;2.40;;;15.90;99.90;;;;;;5032841;28;20029;-72
2022/07/03 05:08:57;;;;;;;3.55;2.35;;;15.90;99.90;;;;;;5032949;28;20433;-72
2022/07/03 05:11:22;;;;;;;2.50;2.30;;;16.00;99.90;;;;;;5032796;28;20062;-71
2022/07/03 05:13:48;;;;;;;5.57;2.50;;;16.10;99.90;;;;;;5032092;28;20033;-72
2022/07/03 05:16:13;;;;;;;3.97;2.35;;;16.20;99.90;;;;;;5033023;28;20503;-72
2022/07/03 05:18:39;;;;;;;4.85;2.55;;;16.30;99.90;;;;;;5032691;28;20021;-71
2022/07/03 05:21:05;;;;;;;5.95;2.78;;;16.40;99.90;;;;;;5032889;28;20033;-71
2022/07/03 05:23:30;;;;;;;3.97;2.50;;;16.50;99.90;;;;;;5030969;28;20033;-71
2022/07/03 05:25:58;;;;;;;3.92;2.25;;;16.60;99.90;;;;;;5032707;28;20029;-72
2022/07/03 05:28:24;;;;;;;5.07;2.60;;;16.80;99.90;;;;;;5032553;28;20379;-71
2022/07/03 05:30:49;;;;;;;3.53;2.28;;;16.90;99.90;;;;;;5032351;28;20029;-72
2022/07/03 05:33:20;;;;;;;5.30;1.98;;;17.00;99.90;;;;;;5032391;28;20025;-72
2022/07/03 05:35:46;;;;;;;2.78;1.90;;;17.20;99.90;;;;;;5031426;28;20025;-73
2022/07/03 05:38:11;;;;;;;4.38;2.67;;;17.30;99.90;;;;;;5031603;28;20463;-73
2022/07/03 05:40:37;;;;;;;3.03;2.10;;;17.50;99.90;;;;;;5031575;28;20454;-73
2022/07/03 05:43:02;;;;;;;2.78;2.00;;;17.70;99.90;;;;;;5031573;28;20083;-72
2022/07/03 05:45:28;;;;;;;2.60;2.15;;;17.80;99.90;;;;;;5031746;28;20021;-73
2022/07/03 05:47:54;;;;;;;3.42;2.00;;;18.00;99.90;;;;;;5031127;28;20396;-73
2022/07/03 05:50:19;;;;;;;2.97;2.13;;;18.20;99.90;;;;;;5031156;28;20040;-73
2022/07/03 05:52:45;;;;;;;4.10;2.08;;;18.40;99.90;;;;;;5030933;28;20096;-73
2022/07/03 05:55:10;;;;;;;3.92;2.03;;;18.50;99.90;;;;;;5029493;28;20083;-73
2022/07/03 05:57:36;;;;;;;2.08;1.70;;;18.70;99.90;;;;;;5031226;28;20083;-73
2022/07/03 06:00:03;;;;;;;3.65;2.10;;;19.00;99.90;;;;;;5030873;28;20025;-66
2022/07/03 06:02:28;;;;;;;3.55;1.98;;;19.20;99.90;;;;;;5030793;28;20030;-66
2022/07/03 06:04:54;;;;;;;2.42;1.70;;;19.30;99.90;;;;;;5030852;28;20030;-66
2022/07/03 06:07:20;;;;;;;4.15;2.42;;;19.50;99.90;;;;;;5029501;28;20029;-66
2022/07/03 06:09:47;;;;;;;3.17;2.00;;;19.70;99.90;;;;;;5027800;28;20021;-66
2022/07/03 06:12:13;;;;;;;3.65;1.90;;;19.80;99.90;;;;;;5029505;28;20028;-66
2022/07/03 06:14:39;;;;;;;3.17;1.70;;;20.10;99.90;;;;;;5028930;28;20025;-66
2022/07/03 06:17:04;;;;;;;1.92;1.42;;;20.20;99.90;;;;;;5029389;28;20036;-67
2022/07/03 06:19:30;;;;;;;2.70;1.67;;;20.40;99.90;;;;;;5029395;28;20013;-66
2022/07/03 06:21:56;;;;;;;4.30;1.70;;;20.60;99.90;;;;;;5027845;28;20112;-66
2022/07/03 06:24:21;;;;;;;3.58;1.65;;;20.80;99.90;;;;;;5027008;28;20021;-66
2022/07/03 06:26:47;;;;;;;2.90;1.60;;;20.90;99.90;;;;;;5029154;28;20025;-66
2022/07/03 06:29:12;;;;;;;2.22;1.50;;;21.10;99.90;;;;;;5029873;28;20101;-67
2022/07/03 06:31:38;;;;;;;2.10;1.50;;;21.30;99.90;;;;;;5028920;28;20880;-66
2022/07/03 06:34:03;;;;;;;2.22;1.60;;;21.50;99.90;;;;;;5029482;28;20382;-66
2022/07/03 06:36:29;;;;;;;2.90;1.52;;;21.60;99.90;;;;;;5029620;28;20033;-67
2022/07/03 06:38:54;;;;;;;1.42;1.33;;;21.80;99.90;;;;;;5029734;28;20044;-66
2022/07/03 06:41:20;;;;;;;2.17;1.50;;;21.90;99.90;;;;;;5029803;28;20026;-66
2022/07/03 06:43:45;;;;;;;2.08;1.40;;;22.00;99.90;;;;;;5029619;28;20036;-66
2022/07/03 06:46:11;;;;;;;2.53;1.27;;;22.20;99.90;;;;;;5029696;28;20032;-66
2022/07/03 06:48:36;;;;;;;1.65;1.25;;;22.30;99.90;;;;;;5029516;28;20033;-66
2022/07/03 06:51:02;;;;;;;4.45;1.70;;;22.40;99.90;;;;;;5029365;28;20047;-67
2022/07/03 06:53:27;;;;;;;1.40;1.20;;;22.70;99.90;;;;;;5029396;28;20490;-66
2022/07/03 06:55:53;;;;;;;3.72;1.85;;;22.80;99.90;;;;;;5028883;28;20498;-67
2022/07/03 06:58:18;;;;;;;2.28;1.45;;;23.00;99.90;;;;;;5028932;28;20367;-66
2022/07/03 07:00:44;;;;;;;3.03;1.50;;;23.00;99.90;;;;;;5029690;28;20087;-66
2022/07/03 07:03:10;;;;;;;3.10;1.67;;;23.00;99.90;;;;;;5029391;28;20104;-66
2022/07/03 07:05:35;;;;;;;2.92;1.50;;;23.10;99.90;;;;;;5029952;28;20041;-66
2022/07/03 07:08:01;;;;;;;2.70;1.40;;;23.20;99.90;;;;;;5028714;28;20036;-66
2022/07/03 07:10:26;;;;;;;3.33;1.55;;;23.30;99.90;;;;;;5030154;28;20057;-66
2022/07/03 07:12:52;;;;;;;2.92;1.65;;;23.30;99.90;;;;;;5030320;28;20061;-66
2022/07/03 07:15:17;;;;;;;2.33;1.40;;;23.20;99.90;;;;;;5029554;28;20482;-65
2022/07/03 07:17:43;;;;;;;2.13;1.48;;;23.30;99.90;;;;;;5028201;28;20404;-67
2022/07/03 07:20:09;;;;;;;4.13;1.50;;;23.30;99.90;;;;;;5029094;28;20033;-66
2022/07/03 07:22:34;;;;;;;3.55;1.48;;;23.30;99.90;;;;;;5023467;28;20524;-65
2022/07/03 07:25:01;;;;;;;2.38;1.60;;;23.30;99.90;;;;;;5022436;28;20033;-66
2022/07/03 07:27:26;;;;;;;2.50;1.73;;;23.30;99.90;;;;;;5024146;28;20299;-70
2022/07/03 07:29:52;;;;;;;5.82;1.48;;;23.30;99.90;;;;;;5024378;28;20038;-65
2022/07/03 07:32:17;;;;;;;2.22;1.38;;;23.40;99.90;;;;;;5022682;28;20041;-66
2022/07/03 07:34:43;;;;;;;2.55;1.60;;;23.40;99.90;;;;;;5023286;28;20083;-66
2022/07/03 07:37:08;;;;;;;3.17;1.63;;;23.40;99.90;;;;;;5024981;28;20123;-66
2022/07/03 07:39:34;;;;;;;7.53;1.83;;;23.60;99.90;;;;;;5026388;28;20036;-65
2022/07/03 07:41:59;;;;;;;2.00;1.40;;;23.60;99.90;;;;;;5027293;28;20485;-66
2022/07/03 07:44:25;;;;;;;2.10;1.38;;;23.60;99.90;;;;;;5026545;28;20132;-66
2022/07/03 07:46:50;;;;;;;2.13;1.38;;;23.60;99.90;;;;;;5026781;28;20839;-66
2022/07/03 07:49:16;;;;;;;1.83;1.10;;;23.60;99.90;;;;;;5030700;28;20537;-71
2022/07/03 07:51:43;;;;;;;5.40;1.63;;;23.60;99.90;;;;;;5030809;28;20033;-66
2022/07/03 07:54:11;;;;;;;2.53;1.70;;;23.60;99.90;;;;;;5031791;28;20038;-66
2022/07/03 07:56:37;;;;;;;2.08;1.58;;;23.70;99.90;;;;;;5031282;28;20033;-66
2022/07/03 07:59:03;;;;;;;3.03;1.50;;;23.70;99.90;;;;;;5032100;28;20083;-67
2022/07/03 08:06:56;;;;;;;2.37;1.50;;;23.90;99.90;;;;;;5025942;28;20488;-65
2022/07/03 08:09:22;;;;;;;2.22;1.52;;;24.00;99.90;;;;;;5026188;28;20093;-66
2022/07/03 08:11:47;;;;;;;2.90;1.73;;;24.10;99.90;;;;;;5026363;28;20077;-66
2022/07/03 08:14:13;;;;;;;1.95;1.38;;;24.10;99.90;;;;;;5025532;28;20481;-66
2022/07/03 08:16:39;;;;;;;2.97;1.40;;;24.10;99.90;;;;;;5026781;28;20382;-66
2022/07/03 08:19:05;;;;;;;3.05;1.30;;;24.10;99.90;;;;;;5026420;28;20030;-66
2022/07/03 08:21:31;;;;;;;2.88;1.55;;;24.20;99.90;;;;;;5025817;28;20094;-66
2022/07/03 08:23:57;;;;;;;2.97;1.42;;;24.20;99.90;;;;;;5026187;28;20079;-66
2022/07/03 08:26:22;;;;;;;1.92;1.30;;;24.20;99.90;;;;;;5031504;28;20037;-66
2022/07/03 08:28:48;;;;;;;3.47;1.35;;;24.20;99.90;;;;;;5031487;28;20040;-66
2022/07/03 08:31:13;;;;;;;4.05;1.30;;;24.20;99.90;;;;;;5030729;28;20489;-66
2022/07/03 08:33:39;;;;;;;3.30;1.40;;;24.30;99.90;;;;;;5031236;28;20039;-66
2022/07/03 08:36:05;;;;;;;1.90;1.25;;;24.40;99.90;;;;;;5031568;28;20480;-67
2022/07/03 08:38:33;;;;;;;1.67;1.35;;;24.40;99.90;;;;;;5031035;28;20028;-66
2022/07/03 08:41:00;;;;;;;2.28;1.30;;;24.50;99.90;;;;;;5031096;28;20021;-66
2022/07/03 08:43:25;;;;;;;3.70;1.15;;;24.60;99.90;;;;;;5031276;28;20021;-66
2022/07/03 08:45:52;;;;;;;3.13;1.33;;;24.70;99.90;;;;;;5031144;28;20017;-66
2022/07/03 08:48:21;;;;;;;1.83;1.10;;;24.70;99.90;;;;;;5030630;28;20044;-66
2022/07/03 08:50:48;;;;;;;1.77;1.20;;;24.80;99.90;;;;;;5031112;28;20044;-66
2022/07/03 08:53:15;;;;;;;2.63;1.30;;;24.80;99.90;;;;;;5030495;28;20060;-66
2022/07/03 08:55:41;;;;;;;4.07;1.10;;;24.90;99.90;;;;;;5031001;28;20033;-66
2022/07/03 08:58:10;;;;;;;3.13;1.40;;;24.90;99.90;;;;;;5030949;28;20818;-66
2022/07/03 09:00:36;;;;;;;3.42;1.00;;;25.00;99.90;;;;;;5030428;28;20029;-65
2022/07/03 09:03:04;;;;;;;1.58;1.00;;;25.00;99.90;;;;;;5030901;28;20029;-66
2022/07/03 09:05:30;;;;;;;3.35;1.10;;;25.00;99.90;;;;;;5030570;28;20053;-66
2022/07/03 09:07:59;;;;;;;4.05;1.10;;;25.10;99.90;;;;;;5030276;28;20070;-66
2022/07/03 09:10:24;;;;;;;2.08;1.20;;;25.30;99.90;;;;;;5030062;28;20026;-66
2022/07/03 09:12:50;;;;;;;1.80;1.02;;;25.30;99.90;;;;;;5030458;28;20493;-66
2022/07/03 09:15:16;;;;;;;2.28;1.10;;;25.40;99.90;;;;;;5029716;28;20033;-65
2022/07/03 09:18:06;;;;;;;1.70;1.10;;;25.60;99.90;;;;;;5029845;28;20021;-66
2022/07/03 09:20:37;;;;;;;1.13;0.90;;;25.70;99.90;;;;;;5028517;28;20021;-66
2022/07/03 09:23:19;;;;;;;2.60;1.10;;;25.70;99.90;;;;;;5029260;28;20025;-65
2022/07/03 09:25:52;;;;;;;1.88;1.15;;;25.80;99.90;;;;;;5030741;28;20022;-65
2022/07/03 09:28:20;;;;;;;2.35;1.10;;;25.90;99.90;;;;;;5031518;28;20071;-65
2022/07/03 09:31:02;;;;;;;2.25;1.10;;;26.00;99.90;;;;;;5029233;28;20029;-65
2022/07/03 09:33:27;;;;;;;1.63;1.13;;;26.10;99.90;;;;;;5029848;28;20531;-65
2022/07/03 09:35:55;;;;;;;5.15;1.15;;;26.20;99.90;;;;;;5029097;28;20057;-65
2022/07/03 09:38:21;;;;;;;1.00;0.90;;;26.30;99.90;;;;;;5029015;28;20507;-66
2022/07/03 09:40:50;;;;;;;5.55;0.85;;;26.50;99.90;;;;;;5030186;28;20029;-66
2022/07/03 09:43:25;;;;;;;1.40;0.90;;;26.80;99.90;;;;;;5028278;28;20025;-65
2022/07/03 09:45:59;;;;;;;1.27;0.98;;;27.10;99.90;;;;;;5030553;28;20101;-66
2022/07/03 09:48:35;;;;;;;1.38;0.98;;;27.40;99.90;;;;;;5029691;28;20022;-66
2022/07/03 09:51:18;;;;;;;2.15;1.00;;;27.80;99.90;;;;;;5027889;28;20100;-66
2022/07/03 09:53:57;;;;;;;1.27;1.02;;;28.10;99.90;;;;;;5030068;28;20103;-71
2022/07/03 09:56:43;;;;;;;3.08;1.25;;;28.30;99.90;;;;;;5028735;28;20041;-66
2022/07/03 09:59:14;;;;;;;0.80;0.75;;;28.60;99.90;;;;;;5028037;28;20039;-66
2022/07/03 10:01:41;;;;;;;1.10;0.98;;;28.60;99.90;;;;;;5030937;28;20036;-66
2022/07/03 10:04:10;;;;;;;2.60;1.00;;;28.80;99.90;;;;;;5030870;28;20025;-65
2022/07/03 10:06:59;;;;;;;2.08;0.88;;;29.00;99.90;;;;;;5030056;28;20028;-66
2022/07/03 10:09:33;;;;;;;4.20;1.02;;;29.20;99.80;;;;;;5029453;28;20028;-66
2022/07/03 10:12:00;;;;;;;3.70;1.00;;;29.20;96.00;;;;;;5030820;28;20037;-66
2022/07/03 10:14:31;;;;;;;1.02;0.85;;;29.10;96.90;;;;;;5030342;28;20032;-66
2022/07/03 10:16:58;;;;;;;1.50;0.70;;;29.10;97.60;;;;;;5030239;28;20112;-67
2022/07/03 10:19:26;;;;;;;2.42;1.00;;;29.40;96.40;;;;;;5030368;28;20020;-66
2022/07/03 10:21:55;;;;;;;2.65;0.80;;;29.40;95.60;;;;;;5028942;28;20021;-66
2022/07/03 10:24:27;;;;;;;1.20;0.80;;;29.40;96.20;;;;;;5030087;28;20327;-67
2022/07/03 10:26:55;;;;;;;1.30;0.80;;;29.40;98.00;;;;;;5030241;28;20096;-66
2022/07/03 10:29:22;;;;;;;2.33;1.13;;;29.70;95.10;;;;;;5030222;28;20029;-66
2022/07/03 10:31:48;;;;;;;3.05;0.90;;;30.00;94.40;;;;;;5028443;28;20025;-66
2022/07/03 10:34:23;;;;;;;0.80;0.70;;;30.10;93.40;;;;;;5030186;28;20036;-66
2022/07/03 10:36:58;;;;;;;2.13;1.05;;;30.30;92.50;;;;;;5028480;28;20429;-66
2022/07/03 10:39:52;;;;;;;2.72;0.95;;;30.10;92.90;;;;;;5028409;28;20024;-66
2022/07/03 10:45:15;;;;;;;2.25;0.90;;;30.40;91.90;;;;;;5029811;28;20101;-66
2022/07/03 10:47:43;;;;;;;1.30;0.90;;;30.60;92.90;;;;;;5030327;28;20026;-66
2022/07/03 10:50:21;;;;;;;2.53;0.90;;;30.60;92.00;;;;;;5030313;28;20025;-66
2022/07/03 10:52:47;;;;;;;2.78;0.80;;;30.70;92.50;;;;;;5029763;28;20489;-68
2022/07/03 10:55:14;;;;;;;1.67;0.70;;;30.90;90.50;;;;;;5029779;28;20094;-68
2022/07/03 10:57:42;;;;;;;1.85;0.90;;;31.10;85.40;;;;;;5029721;28;20018;-68
2022/07/03 11:00:16;;;;;;;0.90;0.70;;;31.20;84.10;;;;;;5029463;28;20437;-68
2022/07/03 11:02:46;;;;;;;;;;;31.30;83.00;;;;;;5030507;28;20104;-68
2022/07/03 11:05:19;;;;;;;2.33;0.70;;;31.50;85.10;;;;;;5029959;28;19955;-68
2022/07/03 11:07:48;;;;;;;1.17;0.63;;;31.90;81.10;;;;;;5029942;28;20091;-68
2022/07/03 11:10:16;;;;;;;0.75;0.60;;;31.90;78.70;;;;;;5031318;28;20798;-68
2022/07/03 11:13:03;;;;;;;1.27;0.50;;;32.00;81.00;;;;;;5034224;28;20045;-68
2022/07/03 11:15:42;;;;;;;0.73;0.60;;;31.90;75.90;;;;;;5021077;28;20080;-68
2022/07/03 11:18:13;;;;;;;1.52;0.60;;;31.70;81.30;;;;;;5033205;28;20079;-69
2022/07/03 11:20:42;;;;;;;1.67;0.50;;;32.00;79.40;;;;;;5033419;28;20434;-75
2022/07/03 11:23:17;;;;;;;0.80;0.68;;;32.10;75.50;;;;;;5030905;28;20029;-75
2022/07/03 11:25:47;;;;;;;1.27;0.60;;;32.20;76.50;;;;;;5032321;28;20362;-75
2022/07/03 11:28:48;;;;;;;1.98;0.80;;;32.60;72.00;;;;;;5034850;28;20085;-74
2022/07/03 11:31:17;;;;;;;1.30;0.75;;;32.40;71.70;;;;;;5016257;28;20050;-75
2022/07/03 11:33:42;;;;;;;1.75;0.70;;;32.40;70.90;;;;;;5031166;28;20414;-74
2022/07/03 11:36:16;;;;;;;1.02;0.80;;;32.40;72.80;;;;;;5035074;28;20032;-75
2022/07/03 11:38:59;;;;;;;0.90;0.70;;;32.60;69.30;;;;;;5034875;28;20021;-75
2022/07/03 11:41:45;;;;;;;1.20;0.60;;;32.90;73.50;;;;;;5027536;28;20021;-75
2022/07/03 11:44:17;;;;;;;1.30;0.70;;;33.10;69.10;;;;;;5033312;28;20029;-75
2022/07/03 11:46:47;;;;;;;2.28;0.80;;;33.20;70.00;;;;;;5037060;28;20021;-74
2022/07/03 11:49:19;;;;;;;0.95;0.65;;;33.00;68.80;;;;;;5034109;28;20013;-75
2022/07/03 11:51:57;;;;;;;2.05;0.68;;;32.90;70.20;;;;;;5035916;28;20041;-74
2022/07/03 11:54:23;;;;;;;1.73;0.80;;;33.10;71.50;;;;;;5034137;28;20052;-75
2022/07/03 11:56:48;;;;;;;0.88;0.60;;;33.20;71.20;;;;;;5034273;28;20208;-74
2022/07/03 11:59:14;;;;;;;1.73;0.80;;;33.40;66.60;;;;;;5034315;28;20121;-74
2022/07/03 12:01:40;;;;;;;2.00;0.80;;;33.60;66.70;;;;;;5034588;28;20022;-74
2022/07/03 12:04:17;;;;;;;1.70;0.80;;;33.70;67.10;;;;;;5034543;28;20100;-74
2022/07/03 12:06:48;;;;;;;0.70;0.60;;;33.60;66.10;;;;;;5034609;28;20022;-73
2022/07/03 12:09:34;;;;;;;2.20;0.80;;;33.70;67.40;;;;;;5034338;28;20026;-73
2022/07/03 12:12:05;;;;;;;1.58;0.70;;;33.90;66.60;;;;;;5034254;28;20409;-74
2022/07/03 12:14:48;;;;;;;1.35;0.80;;;34.00;66.00;;;;;;5034250;28;20030;-74
2022/07/03 12:17:15;;;;;;;1.42;0.75;;;34.10;63.70;;;;;;5021566;28;20100;-74
2022/07/03 12:19:49;;;;;;;2.67;0.77;;;33.90;65.20;;;;;;5034221;28;20044;-73
2022/07/03 12:22:30;;;;;;;3.22;1.00;;;34.00;65.50;;;;;;5026958;28;20471;-74
2022/07/03 12:25:04;;;;;;;1.45;0.77;;;34.20;63.30;;;;;;5034093;28;20463;-74
2022/07/03 12:27:32;;;;;;;1.75;0.73;;;33.90;63.40;;;;;;5032981;28;20083;-73
2022/07/03 12:29:58;;;;;;;1.63;0.80;;;33.90;65.70;;;;;;5038813;28;20029;-74
2022/07/03 12:32:25;;;;;;;3.00;0.88;;;34.20;62.50;;;;;;5033523;28;20025;-74
2022/07/03 12:34:50;;;;;;;1.27;0.60;;;34.00;64.50;;;;;;5035111;28;20501;-74
2022/07/03 12:37:16;;;;;;;2.33;0.90;;;34.40;66.10;;;;;;5033657;28;20029;-74
2022/07/03 12:39:48;;;;;;;2.90;0.70;;;34.60;61.00;;;;;;5032786;28;20502;-74
2022/07/03 12:42:18;;;;;;;2.78;0.77;;;34.80;60.90;;;;;;5033224;28;20052;-79
2022/07/03 12:44:55;;;;;;;1.08;0.68;;;34.50;62.70;;;;;;5033018;28;20110;-75
2022/07/03 12:47:21;;;;;;;2.08;0.90;;;34.40;61.50;;;;;;5029265;28;20055;-74
2022/07/03 12:49:53;;;;;;;1.80;0.80;;;34.40;62.90;;;;;;5031403;28;20108;-74
2022/07/03 12:52:19;;;;;;;1.42;0.70;;;34.60;59.70;;;;;;5031700;28;20021;-74
2022/07/03 12:54:44;;;;;;;1.63;0.60;;;34.60;61.40;;;;;;5031858;28;20692;-74
2022/07/03 13:00:24;;;;;;;1.88;0.85;;;34.50;61.10;;;;;;5032390;28;20028;-75
2022/07/03 13:02:52;;;;;;;7.82;1.98;;;34.60;62.60;;;;;;5012749;28;20041;-75
2022/07/03 13:05:23;;;;;;;2.92;0.80;;;34.50;60.30;;;;;;5034050;28;20018;-75
2022/07/03 13:07:54;;;;;;;1.50;0.88;;;34.40;62.20;;;;;;5032071;28;20036;-76
2022/07/03 13:10:23;;;;;;;3.78;0.98;;;34.30;61.30;;;;;;5042491;28;20468;-75
2022/07/03 13:12:56;;;;;;;1.75;0.80;;;34.20;65.50;;;;;;5030979;28;20079;-74
2022/07/03 13:15:27;;;;;;;1.30;0.70;;;34.50;63.30;;;;;;5035749;28;20094;-75
2022/07/03 13:18:00;;;;;;;3.63;0.63;;;34.40;61.90;;;;;;5031332;28;20021;-73